sensor_id;sensor_type;location;lat;lon;timestamp;P1;durP1;ratioP1;P2;durP2;ratioP2
21170;SDS011;10743;52.160;20.910;2023-04-24T00:02:05;208.40;;;62.60;;
21170;SDS011;10743;52.160;20.910;2023-04-24T00:04:33;210.63;;;62.47;;
21170;SDS011;10743;52.160;20.910;2023-04-24T00:07:01;213.70;;;62.63;;
21170;SDS011;10743;52.160;20.910;2023-04-24T00:09:29;217.23;;;62.90;;
21170;SDS011;10743;52.160;20.910;2023-04-24T00:11:56;215.40;;;62.00;;
21170;SDS011;10743;52.160;20.910;2023-04-24T00:14:23;207.00;;;61.53;;
21170;SDS011;10743;52.160;20.910;2023-04-24T00:16:51;215.23;;;63.27;;
21170;SDS011;10743;52.160;20.910;2023-04-24T00:19:18;216.03;;;62.60;;
21170;SDS011;10743;52.160;20.910;2023-04-24T00:21:47;209.80;;;62.00;;
21170;SDS011;10743;52.160;20.910;2023-04-24T00:24:17;217.83;;;62.63;;
21170;SDS011;10743;52.160;20.910;2023-04-24T00:26:45;210.47;;;62.30;;
21170;SDS011;10743;52.160;20.910;2023-04-24T00:29:12;209.50;;;61.43;;
21170;SDS011;10743;52.160;20.910;2023-04-24T00:31:39;216.83;;;61.67;;
21170;SDS011;10743;52.160;20.910;2023-04-24T00:34:06;213.70;;;61.87;;
21170;SDS011;10743;52.160;20.910;2023-04-24T00:36:34;213.90;;;62.00;;
21170;SDS011;10743;52.160;20.910;2023-04-24T00:39:01;209.53;;;61.50;;
21170;SDS011;10743;52.160;20.910;2023-04-24T00:41:28;208.57;;;61.70;;
21170;SDS011;10743;52.160;20.910;2023-04-24T00:43:56;214.43;;;62.20;;
21170;SDS011;10743;52.160;20.910;2023-04-24T00:46:24;210.10;;;62.20;;
21170;SDS011;10743;52.160;20.910;2023-04-24T00:48:51;209.57;;;61.83;;
21170;SDS011;10743;52.160;20.910;2023-04-24T00:51:19;209.57;;;61.77;;
21170;SDS011;10743;52.160;20.910;2023-04-24T00:53:47;212.17;;;61.73;;
21170;SDS011;10743;52.160;20.910;2023-04-24T00:56:14;210.43;;;61.23;;
21170;SDS011;10743;52.160;20.910;2023-04-24T00:58:42;206.73;;;61.27;;
21170;SDS011;10743;52.160;20.910;2023-04-24T01:01:09;213.83;;;62.63;;
21170;SDS011;10743;52.160;20.910;2023-04-24T01:03:37;213.30;;;62.13;;
21170;SDS011;10743;52.160;20.910;2023-04-24T01:06:05;212.27;;;61.67;;
21170;SDS011;10743;52.160;20.910;2023-04-24T01:08:33;206.53;;;60.77;;
21170;SDS011;10743;52.160;20.910;2023-04-24T01:11:03;208.03;;;60.73;;
21170;SDS011;10743;52.160;20.910;2023-04-24T01:13:31;211.00;;;61.90;;
21170;SDS011;10743;52.160;20.910;2023-04-24T01:15:59;211.30;;;61.83;;
21170;SDS011;10743;52.160;20.910;2023-04-24T01:18:27;213.47;;;61.90;;
21170;SDS011;10743;52.160;20.910;2023-04-24T01:20:58;213.17;;;62.00;;
21170;SDS011;10743;52.160;20.910;2023-04-24T01:23:26;209.53;;;61.97;;
21170;SDS011;10743;52.160;20.910;2023-04-24T01:25:53;211.13;;;61.33;;
21170;SDS011;10743;52.160;20.910;2023-04-24T01:28:21;212.57;;;62.03;;
21170;SDS011;10743;52.160;20.910;2023-04-24T01:30:48;211.43;;;61.37;;
21170;SDS011;10743;52.160;20.910;2023-04-24T01:33:16;216.50;;;62.33;;
21170;SDS011;10743;52.160;20.910;2023-04-24T01:35:43;206.70;;;61.37;;
21170;SDS011;10743;52.160;20.910;2023-04-24T01:38:11;210.67;;;62.37;;
21170;SDS011;10743;52.160;20.910;2023-04-24T01:40:38;207.10;;;61.20;;
21170;SDS011;10743;52.160;20.910;2023-04-24T01:43:05;210.43;;;61.80;;
21170;SDS011;10743;52.160;20.910;2023-04-24T01:45:33;211.73;;;62.37;;
21170;SDS011;10743;52.160;20.910;2023-04-24T01:48:03;207.60;;;61.60;;
21170;SDS011;10743;52.160;20.910;2023-04-24T01:50:30;215.07;;;62.63;;
21170;SDS011;10743;52.160;20.910;2023-04-24T01:52:58;208.93;;;60.90;;
21170;SDS011;10743;52.160;20.910;2023-04-24T01:55:25;208.33;;;61.57;;
21170;SDS011;10743;52.160;20.910;2023-04-24T01:57:53;211.87;;;62.03;;
21170;SDS011;10743;52.160;20.910;2023-04-24T02:00:22;208.60;;;62.03;;
21170;SDS011;10743;52.160;20.910;2023-04-24T02:02:52;208.47;;;61.53;;
21170;SDS011;10743;52.160;20.910;2023-04-24T02:05:19;205.00;;;61.23;;
21170;SDS011;10743;52.160;20.910;2023-04-24T02:07:46;204.13;;;60.70;;
21170;SDS011;10743;52.160;20.910;2023-04-24T02:10:13;209.20;;;61.87;;
21170;SDS011;10743;52.160;20.910;2023-04-24T02:12:41;211.27;;;62.30;;
21170;SDS011;10743;52.160;20.910;2023-04-24T02:15:09;208.80;;;61.00;;
21170;SDS011;10743;52.160;20.910;2023-04-24T02:17:36;211.27;;;61.90;;
21170;SDS011;10743;52.160;20.910;2023-04-24T02:20:05;200.20;;;60.90;;
21170;SDS011;10743;52.160;20.910;2023-04-24T02:22:33;214.87;;;62.10;;
21170;SDS011;10743;52.160;20.910;2023-04-24T02:25:01;207.40;;;61.40;;
21170;SDS011;10743;52.160;20.910;2023-04-24T02:27:29;208.53;;;62.17;;
21170;SDS011;10743;52.160;20.910;2023-04-24T02:29:56;210.77;;;62.07;;
21170;SDS011;10743;52.160;20.910;2023-04-24T02:32:23;216.40;;;62.90;;
21170;SDS011;10743;52.160;20.910;2023-04-24T02:34:50;219.97;;;62.97;;
21170;SDS011;10743;52.160;20.910;2023-04-24T02:37:17;215.63;;;61.93;;
21170;SDS011;10743;52.160;20.910;2023-04-24T02:39:44;212.10;;;62.33;;
21170;SDS011;10743;52.160;20.910;2023-04-24T02:42:12;216.53;;;62.30;;
21170;SDS011;10743;52.160;20.910;2023-04-24T02:44:39;215.93;;;62.67;;
21170;SDS011;10743;52.160;20.910;2023-04-24T02:47:07;210.03;;;61.87;;
21170;SDS011;10743;52.160;20.910;2023-04-24T02:49:34;222.50;;;61.60;;
21170;SDS011;10743;52.160;20.910;2023-04-24T02:52:01;212.43;;;61.87;;
21170;SDS011;10743;52.160;20.910;2023-04-24T02:54:28;216.77;;;62.77;;
21170;SDS011;10743;52.160;20.910;2023-04-24T02:56:55;220.53;;;62.97;;
21170;SDS011;10743;52.160;20.910;2023-04-24T02:59:23;209.90;;;62.27;;
21170;SDS011;10743;52.160;20.910;2023-04-24T03:01:50;214.77;;;62.77;;
21170;SDS011;10743;52.160;20.910;2023-04-24T03:04:17;214.73;;;62.50;;
21170;SDS011;10743;52.160;20.910;2023-04-24T03:06:47;214.40;;;62.00;;
21170;SDS011;10743;52.160;20.910;2023-04-24T03:09:14;213.50;;;62.57;;
21170;SDS011;10743;52.160;20.910;2023-04-24T03:11:41;217.43;;;62.80;;
21170;SDS011;10743;52.160;20.910;2023-04-24T03:14:08;216.20;;;62.30;;
21170;SDS011;10743;52.160;20.910;2023-04-24T03:16:36;209.20;;;62.23;;
21170;SDS011;10743;52.160;20.910;2023-04-24T03:19:05;217.27;;;63.33;;
21170;SDS011;10743;52.160;20.910;2023-04-24T03:21:38;212.80;;;62.37;;
21170;SDS011;10743;52.160;20.910;2023-04-24T03:24:10;216.67;;;62.20;;
21170;SDS011;10743;52.160;20.910;2023-04-24T03:26:37;215.90;;;62.87;;
21170;SDS011;10743;52.160;20.910;2023-04-24T03:29:18;217.00;;;61.93;;
21170;SDS011;10743;52.160;20.910;2023-04-24T03:31:45;214.80;;;62.90;;
21170;SDS011;10743;52.160;20.910;2023-04-24T03:34:12;211.20;;;62.23;;
21170;SDS011;10743;52.160;20.910;2023-04-24T03:36:40;217.87;;;62.77;;
21170;SDS011;10743;52.160;20.910;2023-04-24T03:39:07;213.77;;;62.77;;
21170;SDS011;10743;52.160;20.910;2023-04-24T03:41:37;214.53;;;62.53;;
21170;SDS011;10743;52.160;20.910;2023-04-24T03:44:14;209.87;;;62.33;;
21170;SDS011;10743;52.160;20.910;2023-04-24T03:46:42;211.97;;;62.97;;
21170;SDS011;10743;52.160;20.910;2023-04-24T03:49:09;210.83;;;62.13;;
21170;SDS011;10743;52.160;20.910;2023-04-24T03:51:40;217.60;;;63.03;;
21170;SDS011;10743;52.160;20.910;2023-04-24T03:54:16;210.53;;;62.90;;
21170;SDS011;10743;52.160;20.910;2023-04-24T03:56:44;213.97;;;62.93;;
21170;SDS011;10743;52.160;20.910;2023-04-24T03:59:12;211.80;;;62.13;;
21170;SDS011;10743;52.160;20.910;2023-04-24T04:01:42;213.20;;;61.90;;
21170;SDS011;10743;52.160;20.910;2023-04-24T04:04:16;212.93;;;62.10;;
21170;SDS011;10743;52.160;20.910;2023-04-24T04:06:44;215.03;;;62.17;;
21170;SDS011;10743;52.160;20.910;2023-04-24T04:09:13;212.33;;;61.50;;
21170;SDS011;10743;52.160;20.910;2023-04-24T04:11:40;210.03;;;61.43;;
21170;SDS011;10743;52.160;20.910;2023-04-24T04:14:07;211.53;;;62.17;;
21170;SDS011;10743;52.160;20.910;2023-04-24T04:16:37;213.53;;;62.43;;
21170;SDS011;10743;52.160;20.910;2023-04-24T04:19:05;212.50;;;62.43;;
21170;SDS011;10743;52.160;20.910;2023-04-24T04:21:33;215.90;;;62.63;;
21170;SDS011;10743;52.160;20.910;2023-04-24T04:24:09;215.33;;;62.40;;
21170;SDS011;10743;52.160;20.910;2023-04-24T04:26:40;211.90;;;61.77;;
21170;SDS011;10743;52.160;20.910;2023-04-24T04:29:19;215.70;;;62.43;;
21170;SDS011;10743;52.160;20.910;2023-04-24T04:31:49;222.20;;;62.77;;
21170;SDS011;10743;52.160;20.910;2023-04-24T04:34:16;217.60;;;61.43;;
21170;SDS011;10743;52.160;20.910;2023-04-24T04:36:43;218.93;;;62.67;;
21170;SDS011;10743;52.160;20.910;2023-04-24T04:39:25;218.37;;;62.53;;
21170;SDS011;10743;52.160;20.910;2023-04-24T04:41:57;212.50;;;62.37;;
21170;SDS011;10743;52.160;20.910;2023-04-24T04:44:29;218.80;;;63.73;;
21170;SDS011;10743;52.160;20.910;2023-04-24T04:46:59;225.40;;;63.87;;
21170;SDS011;10743;52.160;20.910;2023-04-24T04:49:29;218.60;;;62.90;;
21170;SDS011;10743;52.160;20.910;2023-04-24T04:52:01;221.00;;;63.10;;
21170;SDS011;10743;52.160;20.910;2023-04-24T04:54:28;221.37;;;62.70;;
21170;SDS011;10743;52.160;20.910;2023-04-24T04:56:56;225.40;;;64.17;;
21170;SDS011;10743;52.160;20.910;2023-04-24T04:59:23;221.40;;;63.00;;
21170;SDS011;10743;52.160;20.910;2023-04-24T05:01:57;223.97;;;64.47;;
21170;SDS011;10743;52.160;20.910;2023-04-24T05:04:24;220.20;;;63.50;;
21170;SDS011;10743;52.160;20.910;2023-04-24T05:06:52;221.23;;;63.73;;
21170;SDS011;10743;52.160;20.910;2023-04-24T05:09:21;223.80;;;63.57;;
21170;SDS011;10743;52.160;20.910;2023-04-24T05:11:55;217.20;;;62.47;;
21170;SDS011;10743;52.160;20.910;2023-04-24T05:14:23;219.80;;;63.60;;
21170;SDS011;10743;52.160;20.910;2023-04-24T05:16:51;218.63;;;63.13;;
21170;SDS011;10743;52.160;20.910;2023-04-24T05:19:20;218.30;;;63.80;;
21170;SDS011;10743;52.160;20.910;2023-04-24T05:21:47;227.03;;;63.37;;
21170;SDS011;10743;52.160;20.910;2023-04-24T05:24:14;222.80;;;64.07;;
21170;SDS011;10743;52.160;20.910;2023-04-24T05:27:02;218.77;;;63.83;;
21170;SDS011;10743;52.160;20.910;2023-04-24T05:29:36;227.60;;;64.03;;
21170;SDS011;10743;52.160;20.910;2023-04-24T05:32:04;225.00;;;63.93;;
21170;SDS011;10743;52.160;20.910;2023-04-24T05:34:32;220.20;;;64.50;;
21170;SDS011;10743;52.160;20.910;2023-04-24T05:36:59;218.20;;;63.67;;
21170;SDS011;10743;52.160;20.910;2023-04-24T05:39:26;227.23;;;64.70;;
21170;SDS011;10743;52.160;20.910;2023-04-24T05:41:53;223.90;;;64.53;;
21170;SDS011;10743;52.160;20.910;2023-04-24T05:44:24;224.80;;;64.00;;
21170;SDS011;10743;52.160;20.910;2023-04-24T05:46:52;223.70;;;64.17;;
21170;SDS011;10743;52.160;20.910;2023-04-24T05:49:19;225.83;;;64.63;;
21170;SDS011;10743;52.160;20.910;2023-04-24T05:51:46;224.40;;;64.20;;
21170;SDS011;10743;52.160;20.910;2023-04-24T05:54:15;233.83;;;67.57;;
21170;SDS011;10743;52.160;20.910;2023-04-24T05:56:42;238.55;;;66.13;;
21170;SDS011;10743;52.160;20.910;2023-04-24T05:59:12;226.73;;;63.43;;
21170;SDS011;10743;52.160;20.910;2023-04-24T06:01:40;230.33;;;65.30;;
21170;SDS011;10743;52.160;20.910;2023-04-24T06:04:14;229.67;;;65.37;;
21170;SDS011;10743;52.160;20.910;2023-04-24T06:06:42;226.18;;;64.45;;
21170;SDS011;10743;52.160;20.910;2023-04-24T06:09:09;222.87;;;63.83;;
21170;SDS011;10743;52.160;20.910;2023-04-24T06:11:36;223.00;;;64.35;;
21170;SDS011;10743;52.160;20.910;2023-04-24T06:14:04;229.43;;;65.33;;
21170;SDS011;10743;52.160;20.910;2023-04-24T06:16:37;231.93;;;65.50;;
21170;SDS011;10743;52.160;20.910;2023-04-24T06:19:26;231.27;;;64.83;;
21170;SDS011;10743;52.160;20.910;2023-04-24T06:21:53;228.73;;;65.10;;
21170;SDS011;10743;52.160;20.910;2023-04-24T06:24:20;233.88;;;65.28;;
21170;SDS011;10743;52.160;20.910;2023-04-24T06:26:47;233.73;;;64.83;;
21170;SDS011;10743;52.160;20.910;2023-04-24T06:29:14;234.95;;;65.38;;
21170;SDS011;10743;52.160;20.910;2023-04-24T06:31:41;229.45;;;64.93;;
21170;SDS011;10743;52.160;20.910;2023-04-24T06:34:09;232.00;;;65.15;;
21170;SDS011;10743;52.160;20.910;2023-04-24T06:36:36;237.30;;;65.47;;
21170;SDS011;10743;52.160;20.910;2023-04-24T06:39:03;231.63;;;65.03;;
21170;SDS011;10743;52.160;20.910;2023-04-24T06:41:31;228.35;;;65.45;;
21170;SDS011;10743;52.160;20.910;2023-04-24T06:43:58;236.90;;;66.78;;
21170;SDS011;10743;52.160;20.910;2023-04-24T06:46:24;230.70;;;67.07;;
21170;SDS011;10743;52.160;20.910;2023-04-24T06:48:54;242.93;;;67.07;;
21170;SDS011;10743;52.160;20.910;2023-04-24T06:51:24;234.00;;;65.85;;
21170;SDS011;10743;52.160;20.910;2023-04-24T06:53:52;232.80;;;65.85;;
21170;SDS011;10743;52.160;20.910;2023-04-24T06:56:20;231.32;;;65.45;;
21170;SDS011;10743;52.160;20.910;2023-04-24T06:58:47;232.48;;;66.03;;
21170;SDS011;10743;52.160;20.910;2023-04-24T07:01:14;231.55;;;65.80;;
21170;SDS011;10743;52.160;20.910;2023-04-24T07:03:41;228.35;;;65.53;;
21170;SDS011;10743;52.160;20.910;2023-04-24T07:06:09;242.35;;;75.15;;
21170;SDS011;10743;52.160;20.910;2023-04-24T07:08:39;233.70;;;65.55;;
21170;SDS011;10743;52.160;20.910;2023-04-24T07:11:08;231.13;;;66.05;;
21170;SDS011;10743;52.160;20.910;2023-04-24T07:13:35;236.10;;;67.10;;
21170;SDS011;10743;52.160;20.910;2023-04-24T07:16:02;232.82;;;65.72;;
21170;SDS011;10743;52.160;20.910;2023-04-24T07:18:29;232.35;;;66.45;;
21170;SDS011;10743;52.160;20.910;2023-04-24T07:20:57;232.63;;;66.55;;
21170;SDS011;10743;52.160;20.910;2023-04-24T07:23:24;242.80;;;67.97;;
21170;SDS011;10743;52.160;20.910;2023-04-24T07:25:51;241.05;;;67.22;;
21170;SDS011;10743;52.160;20.910;2023-04-24T07:28:18;236.85;;;66.93;;
21170;SDS011;10743;52.160;20.910;2023-04-24T07:30:45;243.63;;;67.55;;
21170;SDS011;10743;52.160;20.910;2023-04-24T07:33:12;247.45;;;67.93;;
21170;SDS011;10743;52.160;20.910;2023-04-24T07:35:39;237.38;;;66.32;;
21170;SDS011;10743;52.160;20.910;2023-04-24T07:38:06;233.93;;;66.40;;
21170;SDS011;10743;52.160;20.910;2023-04-24T07:40:33;236.68;;;67.75;;
21170;SDS011;10743;52.160;20.910;2023-04-24T07:43:00;236.07;;;66.20;;
21170;SDS011;10743;52.160;20.910;2023-04-24T07:45:27;238.95;;;66.47;;
21170;SDS011;10743;52.160;20.910;2023-04-24T07:47:54;233.93;;;66.50;;
21170;SDS011;10743;52.160;20.910;2023-04-24T07:50:22;241.57;;;67.20;;
21170;SDS011;10743;52.160;20.910;2023-04-24T07:52:49;234.20;;;67.75;;
21170;SDS011;10743;52.160;20.910;2023-04-24T07:55:16;232.68;;;66.88;;
21170;SDS011;10743;52.160;20.910;2023-04-24T07:57:44;234.93;;;67.82;;
21170;SDS011;10743;52.160;20.910;2023-04-24T08:00:11;236.77;;;67.88;;
21170;SDS011;10743;52.160;20.910;2023-04-24T08:02:39;238.07;;;68.07;;
21170;SDS011;10743;52.160;20.910;2023-04-24T08:05:07;231.45;;;66.32;;
21170;SDS011;10743;52.160;20.910;2023-04-24T08:07:34;234.93;;;67.68;;
21170;SDS011;10743;52.160;20.910;2023-04-24T08:10:02;240.00;;;67.65;;
21170;SDS011;10743;52.160;20.910;2023-04-24T08:12:29;237.52;;;68.35;;
21170;SDS011;10743;52.160;20.910;2023-04-24T08:14:56;232.23;;;66.68;;
21170;SDS011;10743;52.160;20.910;2023-04-24T08:17:23;233.48;;;67.20;;
21170;SDS011;10743;52.160;20.910;2023-04-24T08:19:51;234.02;;;67.30;;
21170;SDS011;10743;52.160;20.910;2023-04-24T08:22:25;234.13;;;67.30;;
21170;SDS011;10743;52.160;20.910;2023-04-24T08:24:52;236.05;;;67.28;;
21170;SDS011;10743;52.160;20.910;2023-04-24T08:27:20;239.48;;;68.47;;
21170;SDS011;10743;52.160;20.910;2023-04-24T08:29:47;236.32;;;66.72;;
21170;SDS011;10743;52.160;20.910;2023-04-24T08:32:14;233.63;;;67.15;;
21170;SDS011;10743;52.160;20.910;2023-04-24T08:34:41;234.55;;;67.43;;
21170;SDS011;10743;52.160;20.910;2023-04-24T08:37:08;234.82;;;66.75;;
21170;SDS011;10743;52.160;20.910;2023-04-24T08:39:36;235.90;;;67.88;;
21170;SDS011;10743;52.160;20.910;2023-04-24T08:42:04;236.82;;;67.97;;
21170;SDS011;10743;52.160;20.910;2023-04-24T08:44:34;233.45;;;67.93;;
21170;SDS011;10743;52.160;20.910;2023-04-24T08:47:02;240.27;;;67.35;;
21170;SDS011;10743;52.160;20.910;2023-04-24T08:49:30;237.75;;;67.80;;
21170;SDS011;10743;52.160;20.910;2023-04-24T08:51:58;237.05;;;68.15;;
21170;SDS011;10743;52.160;20.910;2023-04-24T08:54:26;235.10;;;67.40;;
21170;SDS011;10743;52.160;20.910;2023-04-24T08:56:56;233.30;;;68.40;;
21170;SDS011;10743;52.160;20.910;2023-04-24T08:59:27;235.65;;;67.03;;
21170;SDS011;10743;52.160;20.910;2023-04-24T09:01:55;239.45;;;69.20;;
21170;SDS011;10743;52.160;20.910;2023-04-24T09:04:23;235.82;;;67.85;;
21170;SDS011;10743;52.160;20.910;2023-04-24T09:06:53;234.52;;;68.25;;
21170;SDS011;10743;52.160;20.910;2023-04-24T09:09:24;236.93;;;68.15;;
21170;SDS011;10743;52.160;20.910;2023-04-24T09:11:52;232.82;;;67.60;;
21170;SDS011;10743;52.160;20.910;2023-04-24T09:14:22;238.27;;;68.68;;
21170;SDS011;10743;52.160;20.910;2023-04-24T09:16:50;240.82;;;69.25;;
21170;SDS011;10743;52.160;20.910;2023-04-24T09:19:17;233.70;;;66.13;;
21170;SDS011;10743;52.160;20.910;2023-04-24T09:21:47;227.20;;;64.97;;
21170;SDS011;10743;52.160;20.910;2023-04-24T09:24:16;233.32;;;65.78;;
21170;SDS011;10743;52.160;20.910;2023-04-24T09:26:46;235.25;;;66.43;;
21170;SDS011;10743;52.160;20.910;2023-04-24T09:29:14;231.30;;;66.03;;
21170;SDS011;10743;52.160;20.910;2023-04-24T09:31:43;230.43;;;65.68;;
21170;SDS011;10743;52.160;20.910;2023-04-24T09:34:12;233.98;;;65.82;;
21170;SDS011;10743;52.160;20.910;2023-04-24T09:36:40;232.32;;;65.97;;
21170;SDS011;10743;52.160;20.910;2023-04-24T09:39:10;239.65;;;66.93;;
21170;SDS011;10743;52.160;20.910;2023-04-24T09:44:19;245.90;;;68.47;;
21170;SDS011;10743;52.160;20.910;2023-04-24T09:46:49;242.60;;;68.65;;
21170;SDS011;10743;52.160;20.910;2023-04-24T09:49:27;244.93;;;68.68;;
21170;SDS011;10743;52.160;20.910;2023-04-24T09:52:02;244.00;;;69.25;;
21170;SDS011;10743;52.160;20.910;2023-04-24T09:54:35;240.70;;;69.05;;
21170;SDS011;10743;52.160;20.910;2023-04-24T09:57:03;240.20;;;68.75;;
21170;SDS011;10743;52.160;20.910;2023-04-24T09:59:31;243.00;;;69.80;;
21170;SDS011;10743;52.160;20.910;2023-04-24T10:01:59;250.15;;;75.95;;
21170;SDS011;10743;52.160;20.910;2023-04-24T10:04:27;241.63;;;70.22;;
21170;SDS011;10743;52.160;20.910;2023-04-24T10:06:55;246.13;;;70.10;;
21170;SDS011;10743;52.160;20.910;2023-04-24T10:09:24;251.70;;;70.20;;
21170;SDS011;10743;52.160;20.910;2023-04-24T10:11:53;249.23;;;70.05;;
21170;SDS011;10743;52.160;20.910;2023-04-24T10:14:22;250.40;;;71.60;;
21170;SDS011;10743;52.160;20.910;2023-04-24T10:16:52;262.38;;;71.95;;
21170;SDS011;10743;52.160;20.910;2023-04-24T10:19:21;253.60;;;71.22;;
21170;SDS011;10743;52.160;20.910;2023-04-24T10:21:52;254.00;;;71.53;;
21170;SDS011;10743;52.160;20.910;2023-04-24T10:24:20;250.93;;;71.43;;
21170;SDS011;10743;52.160;20.910;2023-04-24T10:26:48;258.85;;;72.45;;
21170;SDS011;10743;52.160;20.910;2023-04-24T10:29:16;261.75;;;73.32;;
21170;SDS011;10743;52.160;20.910;2023-04-24T10:31:45;260.35;;;73.53;;
21170;SDS011;10743;52.160;20.910;2023-04-24T10:34:14;256.90;;;73.40;;
21170;SDS011;10743;52.160;20.910;2023-04-24T10:36:48;255.85;;;74.18;;
21170;SDS011;10743;52.160;20.910;2023-04-24T10:39:20;246.43;;;72.60;;
21170;SDS011;10743;52.160;20.910;2023-04-24T10:41:53;246.57;;;71.97;;
21170;SDS011;10743;52.160;20.910;2023-04-24T10:44:23;258.02;;;73.82;;
21170;SDS011;10743;52.160;20.910;2023-04-24T10:46:54;248.38;;;72.80;;
21170;SDS011;10743;52.160;20.910;2023-04-24T10:49:29;255.93;;;73.28;;
21170;SDS011;10743;52.160;20.910;2023-04-24T10:52:01;253.85;;;72.72;;
21170;SDS011;10743;52.160;20.910;2023-04-24T10:54:36;249.88;;;72.22;;
21170;SDS011;10743;52.160;20.910;2023-04-24T11:00:36;248.93;;;71.18;;
21170;SDS011;10743;52.160;20.910;2023-04-24T11:02:45;236.48;;;70.75;;
21170;SDS011;10743;52.160;20.910;2023-04-24T11:05:19;229.93;;;70.82;;
21170;SDS011;10743;52.160;20.910;2023-04-24T11:10:55;253.82;;;71.97;;
21170;SDS011;10743;52.160;20.910;2023-04-24T11:18:51;252.15;;;72.53;;
21170;SDS011;10743;52.160;20.910;2023-04-24T11:21:30;261.13;;;73.95;;
21170;SDS011;10743;52.160;20.910;2023-04-24T11:27:20;256.85;;;72.80;;
21170;SDS011;10743;52.160;20.910;2023-04-24T11:29:49;259.88;;;73.88;;
21170;SDS011;10743;52.160;20.910;2023-04-24T11:32:30;255.23;;;73.30;;
21170;SDS011;10743;52.160;20.910;2023-04-24T11:35:13;251.25;;;73.05;;
21170;SDS011;10743;52.160;20.910;2023-04-24T11:37:54;257.00;;;73.28;;
21170;SDS011;10743;52.160;20.910;2023-04-24T11:40:24;253.05;;;72.30;;
21170;SDS011;10743;52.160;20.910;2023-04-24T11:42:52;250.20;;;73.18;;
21170;SDS011;10743;52.160;20.910;2023-04-24T11:45:24;254.40;;;72.63;;
21170;SDS011;10743;52.160;20.910;2023-04-24T11:47:57;261.55;;;74.22;;
21170;SDS011;10743;52.160;20.910;2023-04-24T11:50:26;256.92;;;73.68;;
21170;SDS011;10743;52.160;20.910;2023-04-24T11:52:55;254.95;;;74.03;;
21170;SDS011;10743;52.160;20.910;2023-04-24T11:55:23;255.60;;;74.55;;
21170;SDS011;10743;52.160;20.910;2023-04-24T11:57:57;248.20;;;73.28;;
21170;SDS011;10743;52.160;20.910;2023-04-24T12:00:30;256.05;;;74.57;;
21170;SDS011;10743;52.160;20.910;2023-04-24T12:03:10;255.65;;;73.65;;
21170;SDS011;10743;52.160;20.910;2023-04-24T12:05:39;253.50;;;72.95;;
21170;SDS011;10743;52.160;20.910;2023-04-24T12:08:06;256.60;;;73.90;;
21170;SDS011;10743;52.160;20.910;2023-04-24T12:10:34;253.70;;;72.90;;
21170;SDS011;10743;52.160;20.910;2023-04-24T12:13:02;253.75;;;73.25;;
21170;SDS011;10743;52.160;20.910;2023-04-24T12:15:29;253.40;;;73.07;;
21170;SDS011;10743;52.160;20.910;2023-04-24T12:17:56;253.13;;;71.85;;
21170;SDS011;10743;52.160;20.910;2023-04-24T12:20:26;254.65;;;72.90;;
21170;SDS011;10743;52.160;20.910;2023-04-24T12:22:56;259.55;;;73.25;;
21170;SDS011;10743;52.160;20.910;2023-04-24T12:25:26;251.45;;;71.57;;
21170;SDS011;10743;52.160;20.910;2023-04-24T12:27:55;260.13;;;72.93;;
21170;SDS011;10743;52.160;20.910;2023-04-24T12:33:18;253.93;;;71.22;;
21170;SDS011;10743;52.160;20.910;2023-04-24T12:35:47;278.38;;;71.70;;
21170;SDS011;10743;52.160;20.910;2023-04-24T12:38:21;252.13;;;67.93;;
21170;SDS011;10743;52.160;20.910;2023-04-24T12:41:02;269.50;;;68.30;;
21170;SDS011;10743;52.160;20.910;2023-04-24T12:43:31;280.40;;;75.35;;
21170;SDS011;10743;52.160;20.910;2023-04-24T12:45:59;273.10;;;67.75;;
21170;SDS011;10743;52.160;20.910;2023-04-24T12:48:26;255.85;;;66.05;;
21170;SDS011;10743;52.160;20.910;2023-04-24T12:50:54;243.27;;;65.63;;
21170;SDS011;10743;52.160;20.910;2023-04-24T12:53:27;250.82;;;64.72;;
21170;SDS011;10743;52.160;20.910;2023-04-24T12:55:56;267.33;;;67.78;;
21170;SDS011;10743;52.160;20.910;2023-04-24T12:58:23;252.82;;;64.88;;
21170;SDS011;10743;52.160;20.910;2023-04-24T13:00:51;249.15;;;64.60;;
21170;SDS011;10743;52.160;20.910;2023-04-24T13:03:18;241.77;;;64.53;;
21170;SDS011;10743;52.160;20.910;2023-04-24T13:05:46;247.63;;;64.70;;
21170;SDS011;10743;52.160;20.910;2023-04-24T13:08:13;243.43;;;64.40;;
21170;SDS011;10743;52.160;20.910;2023-04-24T13:10:40;249.18;;;66.00;;
21170;SDS011;10743;52.160;20.910;2023-04-24T13:13:07;245.07;;;65.13;;
21170;SDS011;10743;52.160;20.910;2023-04-24T13:15:35;244.70;;;65.45;;
21170;SDS011;10743;52.160;20.910;2023-04-24T13:18:02;253.02;;;65.75;;
21170;SDS011;10743;52.160;20.910;2023-04-24T13:20:29;240.23;;;64.88;;
21170;SDS011;10743;52.160;20.910;2023-04-24T13:22:56;245.30;;;65.88;;
21170;SDS011;10743;52.160;20.910;2023-04-24T13:25:23;247.35;;;66.15;;
21170;SDS011;10743;52.160;20.910;2023-04-24T13:27:51;242.90;;;66.10;;
21170;SDS011;10743;52.160;20.910;2023-04-24T13:30:18;238.43;;;65.18;;
21170;SDS011;10743;52.160;20.910;2023-04-24T13:32:45;239.13;;;65.15;;
21170;SDS011;10743;52.160;20.910;2023-04-24T13:35:12;244.88;;;66.03;;
21170;SDS011;10743;52.160;20.910;2023-04-24T13:37:39;248.13;;;65.45;;
21170;SDS011;10743;52.160;20.910;2023-04-24T13:40:06;244.75;;;65.15;;
21170;SDS011;10743;52.160;20.910;2023-04-24T13:42:34;245.13;;;66.20;;
21170;SDS011;10743;52.160;20.910;2023-04-24T13:45:01;242.25;;;66.18;;
21170;SDS011;10743;52.160;20.910;2023-04-24T13:47:49;248.35;;;66.65;;
21170;SDS011;10743;52.160;20.910;2023-04-24T13:50:17;246.88;;;67.07;;
21170;SDS011;10743;52.160;20.910;2023-04-24T13:52:45;249.00;;;66.78;;
21170;SDS011;10743;52.160;20.910;2023-04-24T13:55:12;247.60;;;66.38;;
21170;SDS011;10743;52.160;20.910;2023-04-24T13:57:39;246.52;;;66.85;;
21170;SDS011;10743;52.160;20.910;2023-04-24T14:00:06;247.80;;;67.55;;
21170;SDS011;10743;52.160;20.910;2023-04-24T14:02:36;247.20;;;66.43;;
21170;SDS011;10743;52.160;20.910;2023-04-24T14:05:04;250.25;;;66.75;;
21170;SDS011;10743;52.160;20.910;2023-04-24T14:07:32;259.42;;;68.22;;
21170;SDS011;10743;52.160;20.910;2023-04-24T14:09:59;257.73;;;68.65;;
21170;SDS011;10743;52.160;20.910;2023-04-24T14:12:27;251.30;;;68.10;;
21170;SDS011;10743;52.160;20.910;2023-04-24T14:14:54;252.93;;;67.88;;
21170;SDS011;10743;52.160;20.910;2023-04-24T14:17:21;250.13;;;67.60;;
21170;SDS011;10743;52.160;20.910;2023-04-24T14:19:48;254.10;;;68.32;;
21170;SDS011;10743;52.160;20.910;2023-04-24T14:22:15;254.07;;;66.95;;
21170;SDS011;10743;52.160;20.910;2023-04-24T14:24:43;251.45;;;67.55;;
21170;SDS011;10743;52.160;20.910;2023-04-24T14:27:10;250.35;;;67.15;;